Terminal Aerodrome Forecast
Issued by NWS Cleveland, OH

Home | Current Version | Previous Version | Graphics & Text | Print | Product List | Glossary Off
Versions: 1 2 3 4 5 6 7 8 9 10 11 12 13 14 15 16 17 18 19 20 21 22 23 24 25 26 27 28 29

000
FTUS41 KCLE 302300
TAFCLE
TAF
KCLE 302324Z 3100/0106 34008KT P6SM SCT035
     FM310500 23004KT P6SM SCT250
     FM311500 23010KT P6SM SCT100
     FM312200 23010KT P6SM BKN100=

USA.gov is the U.S. government's official web portal to all federal, state and local government web resources and services.